Time,TemperatureF,DewpointF,PressureIn,WindDirection,WindDirectionDegrees,WindSpeedMPH,WindSpeedGustMPH,Humidity,HourlyPrecipIn,Conditions,Clouds,dailyrainin,SoftwareType,DateUTC
2013-05-20 00:00:00,52.6,51.2,30.12,SSE,147,5.0,6.0,95,0.00,,,0.00,Wunderground v.1.15,2013-05-20 04:00:00,
2013-05-20 00:05:00,52.6,51.2,30.13,SSE,164,5.0,8.0,95,0.00,,,0.00,Wunderground v.1.15,2013-05-20 04:05:00,
2013-05-20 00:10:00,52.6,51.2,30.13,South,180,5.0,5.0,95,0.00,,,0.00,Wunderground v.1.15,2013-05-20 04:10:00,
2013-05-20 00:15:00,52.6,50.9,30.12,South,171,5.0,5.0,94,0.00,,,0.00,Wunderground v.1.15,2013-05-20 04:15:00,
2013-05-20 00:25:00,52.7,51.0,30.11,ESE,117,4.0,5.0,94,0.00,,,0.01,Wunderground v.1.15,2013-05-20 04:25:00,
2013-05-20 00:30:00,52.6,51.2,30.11,ESE,119,5.0,5.0,95,0.00,,,0.01,Wunderground v.1.15,2013-05-20 04:30:00,
2013-05-20 00:35:00,52.6,51.2,30.11,ENE,67,3.0,5.0,95,0.00,,,0.01,Wunderground v.1.15,2013-05-20 04:35:00,
2013-05-20 00:40:00,52.6,51.2,30.10,SSE,147,2.0,3.0,95,0.00,,,0.01,Wunderground v.1.15,2013-05-20 04:40:00,
2013-05-20 00:45:00,52.5,51.1,30.10,SSW,213,3.0,3.0,95,0.00,,,0.01,Wunderground v.1.15,2013-05-20 04:45:00,
2013-05-20 00:50:00,52.5,51.1,30.10,South,176,4.0,4.0,95,0.00,,,0.01,Wunderground v.1.15,2013-05-20 04:50:00,
2013-05-20 00:55:00,52.5,51.1,30.09,East,84,3.0,5.0,95,0.00,,,0.01,Wunderground v.1.15,2013-05-20 04:55:00,
2013-05-20 01:00:00,52.4,51.0,30.09,SE,138,3.0,3.0,95,0.00,,,0.01,Wunderground v.1.15,2013-05-20 05:00:00,
2013-05-20 01:05:00,52.4,51.0,30.09,ESE,121,2.0,3.0,95,0.00,,,0.02,Wunderground v.1.15,2013-05-20 05:05:00,
2013-05-20 01:10:00,52.3,50.9,30.09,SSE,150,1.0,6.0,95,0.00,,,0.02,Wunderground v.1.15,2013-05-20 05:10:00,
2013-05-20 01:21:00,52.3,50.9,30.09,SSE,156,3.0,3.0,95,0.00,,,0.02,Wunderground v.1.15,2013-05-20 05:21:00,
2013-05-20 01:25:00,52.2,50.8,30.09,South,173,3.0,3.0,95,0.00,,,0.03,Wunderground v.1.15,2013-05-20 05:25:00,
2013-05-20 01:30:00,52.2,50.8,30.08,SSW,208,3.0,3.0,95,0.00,,,0.03,Wunderground v.1.15,2013-05-20 05:30:00,
2013-05-20 01:35:00,52.2,50.8,30.08,ESE,109,3.0,5.0,95,0.00,,,0.03,Wunderground v.1.15,2013-05-20 05:35:00,
2013-05-20 01:40:00,52.2,50.8,30.09,ESE,123,3.0,4.0,95,0.00,,,0.03,Wunderground v.1.15,2013-05-20 05:40:00,
2013-05-20 01:45:00,52.2,50.8,30.09,SE,128,3.0,4.0,95,0.00,,,0.03,Wunderground v.1.15,2013-05-20 05:45:00,
2013-05-20 01:50:00,52.2,50.8,30.09,ESE,123,3.0,3.0,95,0.00,,,0.03,Wunderground v.1.15,2013-05-20 05:50:00,
2013-05-20 01:55:00,52.2,50.8,30.08,ESE,115,3.0,3.0,95,0.00,,,0.04,Wunderground v.1.15,2013-05-20 05:55:00,
2013-05-20 02:00:00,52.2,50.8,30.08,East,92,2.0,2.0,95,0.00,,,0.04,Wunderground v.1.15,2013-05-20 06:00:00,
2013-05-20 02:05:00,52.2,50.8,30.07,ESE,117,2.0,2.0,95,0.00,,,0.04,Wunderground v.1.15,2013-05-20 06:05:00,
2013-05-20 02:10:00,52.2,50.8,30.07,ENE,70,1.0,2.0,95,0.00,,,0.04,Wunderground v.1.15,2013-05-20 06:10:00,
2013-05-20 02:15:00,52.2,50.8,30.07,SSE,158,2.0,2.0,95,0.00,,,0.04,Wunderground v.1.15,2013-05-20 06:15:00,
2013-05-20 02:21:00,52.2,50.8,30.06,East,98,2.0,3.0,95,0.00,,,0.04,Wunderground v.1.15,2013-05-20 06:21:00,
2013-05-20 02:25:00,52.2,51.1,30.06,ESE,115,2.0,3.0,96,0.00,,,0.04,Wunderground v.1.15,2013-05-20 06:25:00,
2013-05-20 02:31:00,52.2,51.1,30.06,SE,143,2.0,7.0,96,0.00,,,0.05,Wunderground v.1.15,2013-05-20 06:31:00,
2013-05-20 02:35:00,52.2,51.1,30.06,SSE,153,2.0,8.0,96,0.00,,,0.05,Wunderground v.1.15,2013-05-20 06:35:00,
2013-05-20 02:40:00,52.2,51.1,30.06,SSE,152,4.0,4.0,96,0.00,,,0.05,Wunderground v.1.15,2013-05-20 06:40:00,
2013-05-20 02:50:00,52.2,51.1,30.05,SE,138,3.0,3.0,96,0.00,,,0.05,Wunderground v.1.15,2013-05-20 06:50:00,
2013-05-20 02:55:00,52.2,51.1,30.04,SE,125,2.0,4.0,96,0.00,,,0.05,Wunderground v.1.15,2013-05-20 06:55:00,
2013-05-20 03:11:00,52.2,51.1,30.05,SSE,165,1.0,1.0,96,0.00,,,0.05,Wunderground v.1.15,2013-05-20 07:11:00,
2013-05-20 03:16:00,52.2,51.1,30.04,ESE,119,2.0,2.0,96,0.00,,,0.05,Wunderground v.1.15,2013-05-20 07:16:00,
2013-05-20 03:20:00,52.2,51.1,30.04,SSE,155,1.0,3.0,96,0.00,,,0.06,Wunderground v.1.15,2013-05-20 07:20:00,
2013-05-20 03:26:00,52.3,51.2,30.03,SE,145,4.0,4.0,96,0.00,,,0.06,Wunderground v.1.15,2013-05-20 07:26:00,
2013-05-20 03:35:00,52.3,51.2,30.03,East,86,3.0,5.0,96,0.00,,,0.06,Wunderground v.1.15,2013-05-20 07:35:00,
2013-05-20 03:40:00,52.3,51.2,30.02,SE,144,2.0,4.0,96,0.00,,,0.06,Wunderground v.1.15,2013-05-20 07:40:00,
2013-05-20 03:45:00,52.3,51.2,30.02,ESE,121,2.0,4.0,96,0.00,,,0.06,Wunderground v.1.15,2013-05-20 07:45:00,
2013-05-20 03:50:00,52.3,51.2,30.02,SSE,162,3.0,5.0,96,0.00,,,0.06,Wunderground v.1.15,2013-05-20 07:50:00,
2013-05-20 03:55:00,52.4,51.3,30.01,SSE,148,3.0,5.0,96,0.00,,,0.06,Wunderground v.1.15,2013-05-20 07:55:00,
2013-05-20 04:05:00,52.4,51.3,30.02,ENE,68,2.0,3.0,96,0.00,,,0.06,Wunderground v.1.15,2013-05-20 08:05:00,
2013-05-20 04:10:00,52.5,51.4,30.01,West,273,2.0,2.0,96,0.00,,,0.06,Wunderground v.1.15,2013-05-20 08:10:00,
2013-05-20 04:15:00,52.5,51.4,30.01,NNE,28,2.0,2.0,96,0.00,,,0.06,Wunderground v.1.15,2013-05-20 08:15:00,
2013-05-20 04:20:00,52.6,51.5,30.01,ESE,118,2.0,8.0,96,0.00,,,0.07,Wunderground v.1.15,2013-05-20 08:20:00,
2013-05-20 04:25:00,52.5,51.4,30.02,SSE,159,3.0,8.0,96,0.00,,,0.07,Wunderground v.1.15,2013-05-20 08:25:00,
2013-05-20 04:30:00,52.6,51.8,30.02,ESE,123,2.0,2.0,97,0.00,,,0.07,Wunderground v.1.15,2013-05-20 08:30:00,
2013-05-20 04:35:00,52.6,51.8,30.02,SE,130,2.0,2.0,97,0.00,,,0.07,Wunderground v.1.15,2013-05-20 08:35:00,
2013-05-20 04:40:00,52.6,51.8,30.02,SE,146,2.0,3.0,97,0.00,,,0.07,Wunderground v.1.15,2013-05-20 08:40:00,
2013-05-20 04:45:00,52.6,51.8,30.02,SE,130,2.0,3.0,97,0.00,,,0.07,Wunderground v.1.15,2013-05-20 08:45:00,
2013-05-20 04:50:00,52.6,51.8,30.00,SE,146,2.0,2.0,97,0.00,,,0.07,Wunderground v.1.15,2013-05-20 08:50:00,
2013-05-20 04:55:00,52.6,51.8,30.00,ENE,74,2.0,2.0,97,0.00,,,0.07,Wunderground v.1.15,2013-05-20 08:55:00,
2013-05-20 05:00:00,52.6,51.8,30.00,SE,136,1.0,2.0,97,0.00,,,0.07,Wunderground v.1.15,2013-05-20 09:00:00,
2013-05-20 05:05:00,52.7,51.9,30.00,SSE,148,1.0,2.0,97,0.00,,,0.07,Wunderground v.1.15,2013-05-20 09:05:00,
2013-05-20 05:10:00,52.8,52.0,30.00,South,170,2.0,4.0,97,0.00,,,0.07,Wunderground v.1.15,2013-05-20 09:10:00,
2013-05-20 05:20:00,52.8,52.0,30.00,SSE,150,3.0,4.0,97,0.00,,,0.07,Wunderground v.1.15,2013-05-20 09:20:00,
2013-05-20 05:30:00,52.8,51.7,30.00,South,169,1.0,1.0,96,0.00,,,0.07,Wunderground v.1.15,2013-05-20 09:30:00,
2013-05-20 05:40:00,52.8,51.7,29.99,SSE,148,0.0,0.0,96,0.00,,,0.08,Wunderground v.1.15,2013-05-20 09:40:00,
2013-05-20 05:45:00,52.8,51.7,29.99,SE,139,0.0,0.0,96,0.00,,,0.08,Wunderground v.1.15,2013-05-20 09:45:00,
2013-05-20 05:55:00,52.9,52.1,30.00,SSE,148,2.0,3.0,97,0.00,,,0.08,Wunderground v.1.15,2013-05-20 09:55:00,
2013-05-20 06:00:00,53.0,52.2,30.00,SE,146,2.0,3.0,97,0.00,,,0.08,Wunderground v.1.15,2013-05-20 10:00:00,
2013-05-20 06:10:00,53.0,52.2,30.00,SSE,154,2.0,4.0,97,0.00,,,0.08,Wunderground v.1.15,2013-05-20 10:10:00,
2013-05-20 06:15:00,53.1,52.3,30.00,SSE,167,3.0,4.0,97,0.00,,,0.09,Wunderground v.1.15,2013-05-20 10:15:00,
2013-05-20 06:20:00,53.1,52.3,30.00,South,173,3.0,3.0,97,0.00,,,0.09,Wunderground v.1.15,2013-05-20 10:20:00,
2013-05-20 06:25:00,53.1,52.3,30.00,SE,144,3.0,4.0,97,0.00,,,0.09,Wunderground v.1.15,2013-05-20 10:25:00,
2013-05-20 06:35:00,53.2,52.4,30.00,SE,132,3.0,5.0,97,0.00,,,0.09,Wunderground v.1.15,2013-05-20 10:35:00,
2013-05-20 06:40:00,53.2,52.4,30.00,SE,142,2.0,3.0,97,0.00,,,0.09,Wunderground v.1.15,2013-05-20 10:40:00,
2013-05-20 06:50:00,53.2,52.4,29.99,SSE,155,3.0,3.0,97,0.00,,,0.09,Wunderground v.1.15,2013-05-20 10:50:00,
2013-05-20 06:55:00,53.3,52.5,29.99,East,91,1.0,3.0,97,0.00,,,0.09,Wunderground v.1.15,2013-05-20 10:55:00,
2013-05-20 07:00:00,53.4,52.6,29.99,East,91,1.0,1.0,97,0.00,,,0.09,Wunderground v.1.15,2013-05-20 11:00:00,
2013-05-20 07:10:00,53.6,52.8,30.00,ESE,123,1.0,1.0,97,0.00,,,0.09,Wunderground v.1.15,2013-05-20 11:10:00,
2013-05-20 07:15:00,53.7,52.9,30.00,SSE,157,0.0,1.0,97,0.00,,,0.09,Wunderground v.1.15,2013-05-20 11:15:00,
2013-05-20 07:25:00,53.6,52.8,30.00,South,180,0.0,1.0,97,0.00,,,0.10,Wunderground v.1.15,2013-05-20 11:25:00,
2013-05-20 07:30:00,53.7,52.9,30.00,South,180,0.0,0.0,97,0.00,,,0.10,Wunderground v.1.15,2013-05-20 11:30:00,
2013-05-20 07:35:00,53.7,52.9,30.00,South,180,0.0,1.0,97,0.00,,,0.10,Wunderground v.1.15,2013-05-20 11:35:00,
2013-05-20 07:40:00,53.7,52.9,30.00,SE,139,0.0,0.0,97,0.00,,,0.10,Wunderground v.1.15,2013-05-20 11:40:00,
2013-05-20 07:45:00,53.7,52.9,30.00,SSE,166,1.0,2.0,97,0.00,,,0.10,Wunderground v.1.15,2013-05-20 11:45:00,
2013-05-20 07:50:00,53.8,53.0,30.00,SSE,166,1.0,1.0,97,0.00,,,0.10,Wunderground v.1.15,2013-05-20 11:50:00,
2013-05-20 07:55:00,53.9,53.1,30.00,SSE,166,1.0,1.0,97,0.00,,,0.10,Wunderground v.1.15,2013-05-20 11:55:00,
2013-05-20 08:00:00,54.0,53.2,30.01,SSE,166,0.0,0.0,97,0.00,,,0.10,Wunderground v.1.15,2013-05-20 12:00:00,
2013-05-20 08:05:00,54.0,53.2,30.01,SSE,165,0.0,0.0,97,0.00,,,0.10,Wunderground v.1.15,2013-05-20 12:05:00,
2013-05-20 08:10:00,54.0,53.2,30.01,SSE,165,0.0,0.0,97,0.00,,,0.11,Wunderground v.1.15,2013-05-20 12:10:00,
2013-05-20 08:15:00,53.9,53.1,30.01,SSE,165,0.0,1.0,97,0.00,,,0.11,Wunderground v.1.15,2013-05-20 12:15:00,
2013-05-20 08:25:00,54.1,53.3,30.01,SSE,165,0.0,0.0,97,0.00,,,0.11,Wunderground v.1.15,2013-05-20 12:25:00,
2013-05-20 08:35:00,54.0,53.2,30.01,SSE,165,0.0,0.0,97,0.00,,,0.11,Wunderground v.1.15,2013-05-20 12:35:00,
2013-05-20 08:40:00,54.0,53.2,30.01,SSE,165,0.0,0.0,97,0.00,,,0.11,Wunderground v.1.15,2013-05-20 12:40:00,
2013-05-20 08:45:00,54.1,53.3,30.01,SSE,165,0.0,0.0,97,0.00,,,0.11,Wunderground v.1.15,2013-05-20 12:45:00,
2013-05-20 08:50:00,54.1,53.3,30.01,SSE,165,0.0,0.0,97,0.00,,,0.11,Wunderground v.1.15,2013-05-20 12:50:00,
2013-05-20 08:55:00,54.2,53.4,30.01,SSE,165,0.0,0.0,97,0.00,,,0.11,Wunderground v.1.15,2013-05-20 12:55:00,
2013-05-20 09:06:00,54.2,53.4,30.01,SSE,166,0.0,0.0,97,0.00,,,0.12,Wunderground v.1.15,2013-05-20 13:06:00,
2013-05-20 09:10:00,54.1,53.3,30.01,SSE,167,0.0,1.0,97,0.00,,,0.12,Wunderground v.1.15,2013-05-20 13:10:00,
2013-05-20 09:15:00,54.2,53.4,30.01,SSE,167,0.0,0.0,97,0.00,,,0.12,Wunderground v.1.15,2013-05-20 13:15:00,
2013-05-20 09:20:00,54.2,53.4,30.01,SSE,167,0.0,0.0,97,0.00,,,0.12,Wunderground v.1.15,2013-05-20 13:20:00,
2013-05-20 09:25:00,54.2,53.4,30.01,SSE,166,0.0,0.0,97,0.00,,,0.12,Wunderground v.1.15,2013-05-20 13:25:00,
2013-05-20 09:35:00,54.3,53.5,30.01,SSE,165,0.0,0.0,97,0.00,,,0.13,Wunderground v.1.15,2013-05-20 13:35:00,
2013-05-20 09:40:00,54.3,53.5,30.01,SSE,163,0.0,0.0,97,0.00,,,0.13,Wunderground v.1.15,2013-05-20 13:40:00,
2013-05-20 09:50:00,54.4,53.6,30.01,SSE,165,0.0,0.0,97,0.00,,,0.13,Wunderground v.1.15,2013-05-20 13:50:00,
2013-05-20 09:55:00,54.5,53.7,30.01,SSE,165,0.0,0.0,97,0.00,,,0.13,Wunderground v.1.15,2013-05-20 13:55:00,
2013-05-20 10:06:00,54.5,53.7,30.01,SSE,165,0.0,0.0,97,0.00,,,0.13,Wunderground v.1.15,2013-05-20 14:06:00,
2013-05-20 10:10:00,54.7,53.9,30.01,SSE,165,0.0,0.0,97,0.00,,,0.13,Wunderground v.1.15,2013-05-20 14:10:00,
2013-05-20 10:20:00,54.9,54.1,30.00,WSW,248,0.0,0.0,97,0.00,,,0.14,Wunderground v.1.15,2013-05-20 14:20:00,
2013-05-20 10:25:00,54.9,54.1,30.00,WSW,244,0.0,0.0,97,0.00,,,0.14,Wunderground v.1.15,2013-05-20 14:25:00,
2013-05-20 10:35:00,55.0,54.2,30.01,WSW,245,0.0,0.0,97,0.00,,,0.14,Wunderground v.1.15,2013-05-20 14:35:00,
2013-05-20 10:40:00,55.0,54.2,30.01,WSW,244,0.0,0.0,97,0.00,,,0.14,Wunderground v.1.15,2013-05-20 14:40:00,
2013-05-20 10:46:00,55.2,54.4,30.01,WSW,245,0.0,0.0,97,0.00,,,0.14,Wunderground v.1.15,2013-05-20 14:46:00,
2013-05-20 10:51:00,55.3,54.5,30.01,WSW,245,0.0,0.0,97,0.00,,,0.14,Wunderground v.1.15,2013-05-20 14:51:00,
2013-05-20 10:55:00,55.4,54.6,30.01,WSW,245,0.0,0.0,97,0.00,,,0.14,Wunderground v.1.15,2013-05-20 14:55:00,
2013-05-20 11:00:00,55.6,54.8,30.01,NE,38,0.0,0.0,97,0.00,,,0.14,Wunderground v.1.15,2013-05-20 15:00:00,
2013-05-20 11:05:00,55.5,54.7,30.01,NE,38,0.0,0.0,97,0.00,,,0.15,Wunderground v.1.15,2013-05-20 15:05:00,
2013-05-20 11:11:00,55.5,54.7,30.00,NE,38,0.0,0.0,97,0.00,,,0.15,Wunderground v.1.15,2013-05-20 15:11:00,
2013-05-20 11:25:00,55.7,54.9,30.00,NE,39,0.0,0.0,97,0.00,,,0.15,Wunderground v.1.15,2013-05-20 15:25:00,
2013-05-20 11:35:00,55.5,54.7,30.00,NE,38,0.0,1.0,97,0.00,,,0.15,Wunderground v.1.15,2013-05-20 15:35:00,
2013-05-20 11:40:00,55.5,54.7,30.00,East,80,0.0,1.0,97,0.00,,,0.15,Wunderground v.1.15,2013-05-20 15:40:00,
2013-05-20 11:50:00,55.5,54.7,29.99,East,80,0.0,0.0,97,0.00,,,0.15,Wunderground v.1.15,2013-05-20 15:50:00,
2013-05-20 12:00:00,55.7,54.9,29.99,East,82,0.0,0.0,97,0.00,,,0.15,Wunderground v.1.15,2013-05-20 16:00:00,
2013-05-20 12:05:00,55.8,55.0,29.99,East,82,0.0,0.0,97,0.00,,,0.15,Wunderground v.1.15,2013-05-20 16:05:00,
2013-05-20 12:10:00,56.0,55.2,29.99,East,82,0.0,0.0,97,0.00,,,0.15,Wunderground v.1.15,2013-05-20 16:10:00,
2013-05-20 12:15:00,56.0,55.2,29.99,East,82,0.0,0.0,97,0.00,,,0.16,Wunderground v.1.15,2013-05-20 16:15:00,
2013-05-20 12:20:00,56.1,55.3,29.99,East,82,0.0,0.0,97,0.00,,,0.16,Wunderground v.1.15,2013-05-20 16:20:00,
2013-05-20 12:26:00,56.3,55.5,29.99,East,82,0.0,0.0,97,0.00,,,0.16,Wunderground v.1.15,2013-05-20 16:26:00,
2013-05-20 12:30:00,56.6,56.0,29.99,East,82,0.0,0.0,98,0.00,,,0.16,Wunderground v.1.15,2013-05-20 16:30:00,
2013-05-20 12:36:00,56.9,56.3,29.99,East,82,0.0,0.0,98,0.00,,,0.16,Wunderground v.1.15,2013-05-20 16:36:00,
2013-05-20 12:40:00,57.3,56.7,29.99,West,281,0.0,0.0,98,0.00,,,0.16,Wunderground v.1.15,2013-05-20 16:40:00,
2013-05-20 12:46:00,57.8,57.2,29.99,West,275,0.0,1.0,98,0.00,,,0.16,Wunderground v.1.15,2013-05-20 16:46:00,
2013-05-20 12:50:00,58.1,57.5,29.99,SW,231,1.0,1.0,98,0.00,,,0.16,Wunderground v.1.15,2013-05-20 16:50:00,
2013-05-20 12:55:00,58.5,57.9,29.99,SW,232,1.0,1.0,98,0.00,,,0.16,Wunderground v.1.15,2013-05-20 16:55:00,
2013-05-20 13:00:00,59.1,58.5,29.99,SW,227,1.0,1.0,98,0.00,,,0.16,Wunderground v.1.15,2013-05-20 17:00:00,
2013-05-20 13:05:00,59.5,58.9,29.99,WSW,244,1.0,1.0,98,0.00,,,0.16,Wunderground v.1.15,2013-05-20 17:05:00,
2013-05-20 13:15:00,60.2,59.3,30.00,WSW,258,1.0,1.0,97,0.00,,,0.16,Wunderground v.1.15,2013-05-20 17:15:00,
2013-05-20 13:20:00,60.1,59.2,30.00,NNE,20,1.0,1.0,97,0.00,,,0.17,Wunderground v.1.15,2013-05-20 17:20:00,
2013-05-20 13:25:00,60.3,59.2,30.00,SW,231,1.0,1.0,96,0.00,,,0.17,Wunderground v.1.15,2013-05-20 17:25:00,
2013-05-20 13:30:00,60.6,59.5,29.99,West,269,0.0,1.0,96,0.00,,,0.17,Wunderground v.1.15,2013-05-20 17:30:00,
2013-05-20 13:36:00,61.1,60.0,29.99,WSW,244,0.0,0.0,96,0.00,,,0.17,Wunderground v.1.15,2013-05-20 17:36:00,
2013-05-20 13:45:00,62.0,60.3,29.99,WSW,240,0.0,0.0,94,0.00,,,0.17,Wunderground v.1.15,2013-05-20 17:45:00,
2013-05-20 13:50:00,62.8,61.0,29.99,SSW,200,0.0,0.0,94,0.00,,,0.17,Wunderground v.1.15,2013-05-20 17:50:00,
2013-05-20 13:55:00,62.8,60.4,29.99,SW,231,0.0,0.0,92,0.00,,,0.17,Wunderground v.1.15,2013-05-20 17:55:00,
2013-05-20 14:00:00,63.0,60.3,29.99,SW,232,0.0,0.0,91,0.00,,,0.17,Wunderground v.1.15,2013-05-20 18:00:00,
2013-05-20 14:05:00,62.8,59.8,29.98,North,5,0.0,0.0,90,0.00,,,0.17,Wunderground v.1.15,2013-05-20 18:05:00,
2013-05-20 14:10:00,62.8,60.1,29.98,North,5,0.0,0.0,91,0.00,,,0.17,Wunderground v.1.15,2013-05-20 18:10:00,
2013-05-20 14:20:00,62.9,60.2,29.98,SW,215,0.0,0.0,91,0.00,,,0.17,Wunderground v.1.15,2013-05-20 18:20:00,
2013-05-20 14:26:00,63.0,59.7,29.98,West,270,0.0,1.0,89,0.00,,,0.18,Wunderground v.1.15,2013-05-20 18:26:00,
2013-05-20 14:31:00,63.1,59.8,29.98,WNW,296,0.0,0.0,89,0.00,,,0.18,Wunderground v.1.15,2013-05-20 18:31:00,
2013-05-20 14:35:00,63.7,60.1,29.98,North,355,0.0,0.0,88,0.00,,,0.18,Wunderground v.1.15,2013-05-20 18:35:00,
2013-05-20 14:40:00,63.9,60.0,29.98,NNW,338,0.0,1.0,87,0.00,,,0.18,Wunderground v.1.15,2013-05-20 18:40:00,
2013-05-20 14:45:00,63.5,58.9,29.98,WSW,240,0.0,1.0,85,0.00,,,0.18,Wunderground v.1.15,2013-05-20 18:45:00,
2013-05-20 15:00:00,63.7,59.4,29.98,NW,315,0.0,0.0,86,0.00,,,0.18,Wunderground v.1.15,2013-05-20 19:00:00,
2013-05-20 15:05:00,63.7,59.1,29.98,SW,224,1.0,1.0,85,0.00,,,0.18,Wunderground v.1.15,2013-05-20 19:05:00,
2013-05-20 15:10:00,63.9,59.6,29.98,SW,224,1.0,1.0,86,0.00,,,0.18,Wunderground v.1.15,2013-05-20 19:10:00,
2013-05-20 15:16:00,63.8,58.5,29.98,WNW,286,0.0,1.0,83,0.00,,,0.18,Wunderground v.1.15,2013-05-20 19:16:00,
2013-05-20 15:21:00,64.0,59.4,29.97,WSW,248,0.0,1.0,85,0.00,,,0.18,Wunderground v.1.15,2013-05-20 19:21:00,
2013-05-20 15:25:00,63.9,59.0,29.97,WSW,253,0.0,1.0,84,0.00,,,0.18,Wunderground v.1.15,2013-05-20 19:25:00,
2013-05-20 15:36:00,65.0,60.0,29.97,NW,319,0.0,0.0,84,0.00,,,0.19,Wunderground v.1.15,2013-05-20 19:36:00,
2013-05-20 15:40:00,65.8,59.8,29.97,WSW,237,0.0,0.0,81,0.00,,,0.19,Wunderground v.1.15,2013-05-20 19:40:00,
2013-05-20 15:45:00,66.6,60.6,29.97,WSW,241,0.0,0.0,81,0.00,,,0.19,Wunderground v.1.15,2013-05-20 19:45:00,
2013-05-20 15:50:00,67.1,59.6,29.97,WNW,300,0.0,0.0,77,0.00,,,0.19,Wunderground v.1.15,2013-05-20 19:50:00,
2013-05-20 15:55:00,67.1,58.9,29.97,North,360,0.0,0.0,75,0.00,,,0.19,Wunderground v.1.15,2013-05-20 19:55:00,
2013-05-20 16:00:00,67.2,57.5,29.97,NW,315,0.0,1.0,71,0.00,,,0.19,Wunderground v.1.15,2013-05-20 20:00:00,
2013-05-20 16:06:00,67.4,58.1,29.97,West,265,0.0,2.0,72,0.00,,,0.19,Wunderground v.1.15,2013-05-20 20:06:00,
2013-05-20 16:10:00,67.6,57.9,29.97,West,263,2.0,7.0,71,0.00,,,0.19,Wunderground v.1.15,2013-05-20 20:10:00,
2013-05-20 16:21:00,66.8,57.9,29.97,SW,216,4.0,4.0,73,0.00,,,0.19,Wunderground v.1.15,2013-05-20 20:21:00,
2013-05-20 16:25:00,66.5,57.2,29.98,NW,311,3.0,4.0,72,0.00,,,0.19,Wunderground v.1.15,2013-05-20 20:25:00,
2013-05-20 16:30:00,66.5,57.2,29.98,SSW,192,1.0,3.0,72,0.00,,,0.19,Wunderground v.1.15,2013-05-20 20:30:00,
2013-05-20 16:35:00,66.5,57.6,29.98,WSW,253,2.0,3.0,73,0.00,,,0.19,Wunderground v.1.15,2013-05-20 20:35:00,
2013-05-20 16:40:00,66.4,57.5,29.98,SSW,211,4.0,6.0,73,0.00,,,0.19,Wunderground v.1.15,2013-05-20 20:40:00,
2013-05-20 16:50:00,66.8,58.2,29.98,WSW,237,4.0,4.0,74,0.00,,,0.19,Wunderground v.1.15,2013-05-20 20:50:00,
2013-05-20 16:55:00,66.8,57.9,29.98,SSW,206,4.0,4.0,73,0.00,,,0.19,Wunderground v.1.15,2013-05-20 20:55:00,
2013-05-20 17:00:00,67.1,58.9,29.98,WSW,238,4.0,4.0,75,0.00,,,0.19,Wunderground v.1.15,2013-05-20 21:00:00,
2013-05-20 17:06:00,67.5,58.5,29.98,SSW,203,3.0,6.0,73,0.00,,,0.19,Wunderground v.1.15,2013-05-20 21:06:00,
2013-05-20 17:10:00,67.0,56.9,29.98,SW,234,4.0,4.0,70,0.00,,,0.19,Wunderground v.1.15,2013-05-20 21:10:00,
2013-05-20 17:15:00,66.6,57.7,29.98,SW,227,4.0,4.0,73,0.00,,,0.19,Wunderground v.1.15,2013-05-20 21:15:00,
2013-05-20 17:20:00,66.4,57.1,29.98,West,268,2.0,4.0,72,0.00,,,0.20,Wunderground v.1.15,2013-05-20 21:20:00,
2013-05-20 17:25:00,66.1,56.8,29.98,SW,221,2.0,4.0,72,0.00,,,0.20,Wunderground v.1.15,2013-05-20 21:25:00,
2013-05-20 17:30:00,66.0,57.1,29.98,SW,223,2.0,2.0,73,0.00,,,0.20,Wunderground v.1.15,2013-05-20 21:30:00,
2013-05-20 17:35:00,66.3,57.4,29.97,WNW,302,1.0,2.0,73,0.00,,,0.20,Wunderground v.1.15,2013-05-20 21:35:00,
2013-05-20 17:41:00,67.0,58.4,29.97,SW,234,1.0,2.0,74,0.00,,,0.20,Wunderground v.1.15,2013-05-20 21:41:00,
2013-05-20 17:45:00,67.3,57.6,29.97,SW,217,2.0,3.0,71,0.00,,,0.20,Wunderground v.1.15,2013-05-20 21:45:00,
2013-05-20 17:51:00,67.1,57.8,29.97,SSW,210,3.0,3.0,72,0.00,,,0.20,Wunderground v.1.15,2013-05-20 21:51:00,
2013-05-20 17:56:00,67.5,58.5,29.97,SSW,213,2.0,3.0,73,0.00,,,0.20,Wunderground v.1.15,2013-05-20 21:56:00,
2013-05-20 18:06:00,67.1,57.8,29.98,SSW,207,4.0,7.0,72,0.00,,,0.20,Wunderground v.1.15,2013-05-20 22:06:00,
2013-05-20 18:11:00,66.8,57.9,29.98,SW,232,4.0,7.0,73,0.00,,,0.20,Wunderground v.1.15,2013-05-20 22:11:00,
2013-05-20 18:15:00,66.8,58.2,29.98,WSW,246,3.0,6.0,74,0.00,,,0.20,Wunderground v.1.15,2013-05-20 22:15:00,
2013-05-20 18:20:00,66.8,57.9,29.98,NNW,346,3.0,6.0,73,0.00,,,0.20,Wunderground v.1.15,2013-05-20 22:20:00,
2013-05-20 18:25:00,66.6,58.1,29.98,WSW,238,1.0,4.0,74,0.00,,,0.20,Wunderground v.1.15,2013-05-20 22:25:00,
2013-05-20 18:30:00,66.1,58.3,29.99,SW,219,1.0,4.0,76,0.00,,,0.20,Wunderground v.1.15,2013-05-20 22:30:00,
2013-05-20 18:35:00,65.5,58.1,29.98,WSW,242,2.0,2.0,77,0.00,,,0.20,Wunderground v.1.15,2013-05-20 22:35:00,
2013-05-20 18:40:00,65.5,59.2,29.98,WSW,242,1.0,2.0,80,0.00,,,0.20,Wunderground v.1.15,2013-05-20 22:40:00,
2013-05-20 18:50:00,66.2,58.4,29.98,SSW,195,2.0,2.0,76,0.00,,,0.21,Wunderground v.1.15,2013-05-20 22:50:00,
2013-05-20 18:55:00,66.1,57.9,29.98,WSW,241,3.0,6.0,75,0.00,,,0.21,Wunderground v.1.15,2013-05-20 22:55:00,
2013-05-20 19:01:00,65.9,58.5,29.98,WSW,240,3.0,3.0,77,0.00,,,0.21,Wunderground v.1.15,2013-05-20 23:01:00,
2013-05-20 19:05:00,65.9,58.5,29.97,WSW,240,2.0,3.0,77,0.00,,,0.21,Wunderground v.1.15,2013-05-20 23:05:00,
2013-05-20 19:10:00,65.7,58.7,29.98,WSW,240,0.0,0.0,78,0.00,,,0.21,Wunderground v.1.15,2013-05-20 23:10:00,
2013-05-20 19:15:00,65.2,58.5,29.98,WSW,240,0.0,0.0,79,0.00,,,0.21,Wunderground v.1.15,2013-05-20 23:15:00,
2013-05-20 19:20:00,64.8,59.2,29.97,WSW,240,1.0,1.0,82,0.00,,,0.21,Wunderground v.1.15,2013-05-20 23:20:00,
2013-05-20 19:25:00,64.3,59.0,29.97,WSW,240,0.0,1.0,83,0.00,,,0.21,Wunderground v.1.15,2013-05-20 23:25:00,
2013-05-20 19:30:00,63.7,58.8,29.97,WSW,240,0.0,0.0,84,0.00,,,0.21,Wunderground v.1.15,2013-05-20 23:30:00,
2013-05-20 19:35:00,63.1,58.5,29.97,WSW,240,0.0,0.0,85,0.00,,,0.21,Wunderground v.1.15,2013-05-20 23:35:00,
2013-05-20 19:40:00,62.5,58.6,29.98,WSW,240,0.0,0.0,87,0.00,,,0.21,Wunderground v.1.15,2013-05-20 23:40:00,
2013-05-20 19:45:00,61.8,58.2,29.98,WSW,240,0.0,0.0,88,0.00,,,0.21,Wunderground v.1.15,2013-05-20 23:45:00,
2013-05-20 19:50:00,61.1,57.8,29.98,WSW,240,0.0,0.0,89,0.00,,,0.21,Wunderground v.1.15,2013-05-20 23:50:00,
2013-05-20 19:55:00,60.5,57.6,29.98,WSW,240,0.0,0.0,90,0.00,,,0.21,Wunderground v.1.15,2013-05-20 23:55:00,
2013-05-20 20:00:00,60.0,57.1,29.97,WSW,240,0.0,0.0,90,0.00,,,0.21,Wunderground v.1.15,2013-05-21 00:00:00,
2013-05-20 20:05:00,59.5,56.6,29.97,WSW,240,0.0,0.0,90,0.00,,,0.21,Wunderground v.1.15,2013-05-21 00:05:00,
2013-05-20 20:10:00,59.1,56.5,29.98,WSW,240,0.0,0.0,91,0.00,,,0.21,Wunderground v.1.15,2013-05-21 00:10:00,
2013-05-20 20:15:00,58.6,56.0,29.97,WSW,240,0.0,0.0,91,0.00,,,0.21,Wunderground v.1.15,2013-05-21 00:15:00,
2013-05-20 20:25:00,57.9,55.3,29.97,WSW,240,0.0,0.0,91,0.00,,,0.21,Wunderground v.1.15,2013-05-21 00:25:00,
2013-05-20 20:30:00,57.5,54.9,29.97,WSW,240,0.0,0.0,91,0.00,,,0.21,Wunderground v.1.15,2013-05-21 00:30:00,
2013-05-20 20:35:00,57.2,54.6,29.97,WSW,240,0.0,0.0,91,0.00,,,0.21,Wunderground v.1.15,2013-05-21 00:35:00,
2013-05-20 20:41:00,56.8,54.2,29.97,WSW,240,0.0,0.0,91,0.00,,,0.21,Wunderground v.1.15,2013-05-21 00:41:00,
2013-05-20 20:45:00,56.5,54.2,29.97,WSW,240,0.0,0.0,92,0.00,,,0.22,Wunderground v.1.15,2013-05-21 00:45:00,
2013-05-20 20:50:00,56.4,54.4,29.97,WSW,240,0.0,0.0,93,0.00,,,0.22,Wunderground v.1.15,2013-05-21 00:50:00,
2013-05-20 21:00:00,56.0,54.0,29.97,WSW,240,0.0,0.0,93,0.00,,,0.22,Wunderground v.1.15,2013-05-21 01:00:00,
2013-05-20 21:05:00,55.7,53.7,29.98,WSW,240,0.0,0.0,93,0.00,,,0.22,Wunderground v.1.15,2013-05-21 01:05:00,
2013-05-20 21:15:00,54.8,52.8,29.98,WSW,241,0.0,0.0,93,0.00,,,0.22,Wunderground v.1.15,2013-05-21 01:15:00,
2013-05-20 21:21:00,54.6,52.6,29.99,WSW,240,0.0,0.0,93,0.00,,,0.22,Wunderground v.1.15,2013-05-21 01:21:00,
2013-05-20 21:26:00,54.4,52.4,29.99,WSW,240,0.0,0.0,93,0.00,,,0.22,Wunderground v.1.15,2013-05-21 01:26:00,
2013-05-20 21:31:00,53.9,51.9,29.99,WSW,240,0.0,0.0,93,0.00,,,0.22,Wunderground v.1.15,2013-05-21 01:31:00,
2013-05-20 21:46:00,53.2,51.5,29.99,WSW,241,0.0,0.0,94,0.00,,,0.22,Wunderground v.1.15,2013-05-21 01:46:00,
2013-05-20 21:56:00,52.8,51.1,29.99,WSW,241,0.0,0.0,94,0.00,,,0.23,Wunderground v.1.15,2013-05-21 01:56:00,
2013-05-20 22:00:00,52.6,50.9,29.99,WSW,240,0.0,0.0,94,0.00,,,0.23,Wunderground v.1.15,2013-05-21 02:00:00,
2013-05-20 22:06:00,52.2,50.5,29.99,WSW,240,0.0,0.0,94,0.00,,,0.23,Wunderground v.1.15,2013-05-21 02:06:00,
2013-05-20 22:11:00,51.9,50.2,29.99,WSW,240,0.0,0.0,94,0.00,,,0.23,Wunderground v.1.15,2013-05-21 02:11:00,
2013-05-20 22:21:00,51.4,49.7,29.98,WSW,240,0.0,0.0,94,0.00,,,0.23,Wunderground v.1.15,2013-05-21 02:21:00,
2013-05-20 22:25:00,51.1,49.4,29.98,WSW,241,0.0,0.0,94,0.00,,,0.23,Wunderground v.1.15,2013-05-21 02:25:00,
2013-05-20 22:30:00,50.8,49.4,29.98,WSW,240,0.0,0.0,95,0.00,,,0.23,Wunderground v.1.15,2013-05-21 02:30:00,
2013-05-20 22:35:00,50.8,49.4,29.98,WSW,240,0.0,0.0,95,0.00,,,0.23,Wunderground v.1.15,2013-05-21 02:35:00,
2013-05-20 22:41:00,50.7,49.3,29.98,WSW,240,0.0,0.0,95,0.00,,,0.23,Wunderground v.1.15,2013-05-21 02:41:00,
2013-05-20 22:50:00,50.6,49.2,29.98,WSW,241,1.0,1.0,95,0.00,,,0.23,Wunderground v.1.15,2013-05-21 02:50:00,
2013-05-20 22:55:00,50.8,49.7,29.99,WSW,240,1.0,1.0,96,0.00,,,0.23,Wunderground v.1.15,2013-05-21 02:55:00,
2013-05-20 23:00:00,50.5,49.1,29.99,WSW,241,1.0,1.0,95,0.00,,,0.23,Wunderground v.1.15,2013-05-21 03:00:00,
2013-05-20 23:05:00,50.0,48.6,29.99,WSW,240,1.0,1.0,95,0.00,,,0.23,Wunderground v.1.15,2013-05-21 03:05:00,
2013-05-20 23:10:00,49.9,48.5,29.99,WSW,241,0.0,0.0,95,0.00,,,0.23,Wunderground v.1.15,2013-05-21 03:10:00,
2013-05-20 23:15:00,49.6,48.2,29.99,WSW,241,0.0,0.0,95,0.00,,,0.23,Wunderground v.1.15,2013-05-21 03:15:00,
2013-05-20 23:25:00,49.0,47.6,29.99,WSW,240,0.0,0.0,95,0.00,,,0.24,Wunderground v.1.15,2013-05-21 03:25:00,
2013-05-20 23:30:00,49.1,48.0,29.99,WSW,241,0.0,0.0,96,0.00,,,0.24,Wunderground v.1.15,2013-05-21 03:30:00,
2013-05-20 23:36:00,48.8,47.4,29.99,WSW,241,0.0,0.0,95,0.00,,,0.24,Wunderground v.1.15,2013-05-21 03:36:00,
2013-05-20 23:45:00,48.8,47.7,30.00,WSW,240,1.0,1.0,96,0.00,,,0.24,Wunderground v.1.15,2013-05-21 03:45:00,
2013-05-20 23:50:00,48.9,47.8,30.00,West,273,1.0,1.0,96,0.00,,,0.24,Wunderground v.1.15,2013-05-21 03:50:00,
2013-05-20 23:55:00,48.6,47.5,30.00,West,273,0.0,1.0,96,0.00,,,0.24,Wunderground v.1.15,2013-05-21 03:55:00,